createdAt,value
2022-12-27T00:00:36.857Z,78.82
2022-12-27T00:03:03.694Z,79.19
2022-12-27T00:05:30.425Z,79.47
2022-12-27T00:07:57.089Z,78.71
2022-12-27T00:10:23.862Z,79.17
2022-12-27T00:12:50.616Z,78.99
2022-12-27T00:15:17.442Z,79.41
2022-12-27T00:17:44.196Z,79.04
2022-12-27T00:20:12.051Z,79.80
2022-12-27T00:22:40.440Z,79.54
2022-12-27T00:25:07.890Z,79.59
2022-12-27T00:27:34.517Z,79.39
2022-12-27T00:30:01.342Z,79.54
2022-12-27T00:32:28.018Z,79.65
2022-12-27T00:34:54.709Z,79.91
2022-12-27T00:37:23.145Z,80.07
2022-12-27T00:39:50.054Z,79.91
2022-12-27T00:42:16.714Z,79.86
2022-12-27T00:44:44.607Z,80.37
2022-12-27T00:47:11.291Z,80.31
2022-12-27T00:49:38.129Z,80.50
2022-12-27T00:52:05.004Z,80.41
2022-12-27T00:54:31.671Z,80.15
2022-12-27T00:56:58.332Z,80.62
2022-12-27T00:59:24.996Z,80.56
2022-12-27T01:01:51.900Z,80.63
2022-12-27T01:04:18.617Z,80.86
2022-12-27T01:06:45.260Z,80.74
2022-12-27T01:09:11.921Z,80.59
2022-12-27T01:11:41.339Z,80.87
2022-12-27T01:14:08.028Z,81.02
2022-12-27T01:16:35.131Z,81.23
2022-12-27T01:19:02.079Z,80.93
2022-12-27T01:21:30.788Z,81.23
2022-12-27T01:23:58.277Z,81.37
2022-12-27T01:26:25.713Z,81.04
2022-12-27T01:28:53.491Z,81.77
2022-12-27T01:31:24.793Z,81.22
2022-12-27T01:33:59.316Z,81.84
2022-12-27T01:36:29.143Z,81.57
2022-12-27T01:38:58.138Z,81.86
2022-12-27T01:41:51.181Z,82.13
2022-12-27T01:44:39.910Z,81.79
2022-12-27T01:47:12.508Z,82.25
2022-12-27T01:49:57.495Z,82.48
2022-12-27T01:52:34.938Z,82.13
2022-12-27T01:55:16.524Z,82.51
2022-12-27T01:57:43.377Z,82.24
2022-12-27T02:00:11.427Z,82.51
2022-12-27T02:02:39.140Z,82.52
2022-12-27T02:05:09.579Z,82.55
2022-12-27T02:08:09.073Z,82.78
2022-12-27T02:10:38.462Z,82.73
2022-12-27T02:13:06.437Z,82.98
2022-12-27T02:15:33.420Z,83.19
2022-12-27T02:18:00.863Z,83.10
2022-12-27T02:20:38.559Z,83.43
2022-12-27T02:23:59.707Z,83.03
2022-12-27T02:27:18.283Z,83.19
2022-12-27T02:30:02.119Z,83.17
2022-12-27T02:32:48.928Z,83.18
2022-12-27T02:35:33.546Z,82.99
2022-12-27T02:38:12.677Z,83.34
2022-12-27T02:41:01.775Z,83.24
2022-12-27T02:43:47.553Z,83.10
2022-12-27T02:46:48.617Z,83.28
2022-12-27T02:49:56.429Z,83.22
2022-12-27T02:53:08.118Z,83.22
2022-12-27T02:56:54.942Z,83.23
2022-12-27T03:00:27.455Z,83.45
2022-12-27T03:03:25.438Z,83.50
2022-12-27T03:06:29.771Z,83.47
2022-12-27T03:09:42.338Z,83.18
2022-12-27T03:12:35.544Z,83.49
2022-12-27T03:15:36.831Z,83.75
2022-12-27T03:18:13.731Z,83.65
2022-12-27T03:21:03.174Z,84.22
2022-12-27T03:23:48.882Z,83.68
2022-12-27T03:26:17.497Z,83.51
2022-12-27T03:29:04.822Z,83.76
2022-12-27T03:31:58.318Z,83.26
2022-12-27T03:34:35.681Z,83.80
2022-12-27T03:37:30.061Z,83.70
2022-12-27T03:40:21.719Z,83.51
2022-12-27T03:43:14.550Z,83.71
2022-12-27T03:46:04.709Z,83.96
2022-12-27T03:48:40.240Z,84.16
2022-12-27T03:51:07.584Z,83.92
2022-12-27T03:53:45.082Z,83.72
2022-12-27T03:56:12.271Z,84.01
2022-12-27T03:58:38.911Z,83.87
2022-12-27T04:01:05.856Z,84.16
2022-12-27T04:03:33.914Z,83.80
2022-12-27T04:06:02.545Z,83.83
2022-12-27T04:08:47.704Z,84.04
2022-12-27T04:11:33.496Z,84.25
2022-12-27T04:14:18.679Z,84.54
2022-12-27T04:17:03.981Z,84.21
2022-12-27T04:19:49.205Z,84.27
2022-12-27T04:22:34.400Z,84.24
2022-12-27T04:25:19.669Z,84.65
2022-12-27T04:28:04.831Z,84.06
2022-12-27T04:30:50.955Z,84.36
2022-12-27T04:33:36.117Z,83.99
2022-12-27T04:36:06.163Z,84.31
2022-12-27T04:38:33.473Z,83.95
2022-12-27T04:41:18.793Z,84.14
2022-12-27T04:44:04.202Z,84.12
2022-12-27T04:46:49.495Z,84.06
2022-12-27T04:49:43.326Z,83.69
2022-12-27T04:52:41.271Z,84.17
2022-12-27T04:55:23.499Z,84.02
2022-12-27T04:57:51.286Z,83.63
2022-12-27T05:00:39.272Z,84.16
2022-12-27T05:03:21.910Z,83.68
2022-12-27T05:05:51.372Z,83.95
2022-12-27T05:08:39.106Z,83.71
2022-12-27T05:11:25.372Z,83.47
2022-12-27T05:14:01.259Z,83.21
2022-12-27T05:16:46.033Z,83.20
2022-12-27T05:19:14.709Z,83.06
2022-12-27T05:22:05.103Z,82.78
2022-12-27T05:24:51.208Z,82.94
2022-12-27T05:27:18.415Z,83.15
2022-12-27T05:29:47.007Z,83.63
2022-12-27T05:32:14.042Z,83.26
2022-12-27T05:34:41.358Z,83.36
2022-12-27T05:37:08.713Z,83.35
2022-12-27T05:39:35.665Z,83.00
2022-12-27T05:42:03.179Z,83.54
2022-12-27T05:44:30.218Z,83.20
2022-12-27T05:46:56.993Z,83.24
2022-12-27T05:49:23.701Z,83.07
2022-12-27T05:51:50.413Z,83.29
2022-12-27T05:54:17.160Z,83.32
2022-12-27T05:56:45.265Z,83.05
2022-12-27T05:59:12.586Z,83.27
2022-12-27T06:01:39.953Z,83.35
2022-12-27T06:04:06.656Z,83.47
2022-12-27T06:06:34.413Z,83.45
2022-12-27T06:09:01.213Z,83.22
2022-12-27T06:11:27.970Z,83.68
2022-12-27T06:14:14.654Z,83.21
2022-12-27T06:17:03.305Z,83.29
2022-12-27T06:19:39.398Z,83.48
2022-12-27T06:22:39.724Z,83.32
2022-12-27T06:25:37.987Z,83.74
2022-12-27T06:28:45.963Z,83.72
2022-12-27T06:31:29.532Z,83.54
2022-12-27T06:34:11.364Z,83.89
2022-12-27T06:36:57.205Z,83.41
2022-12-27T06:39:47.111Z,83.80
2022-12-27T06:42:21.010Z,84.11
2022-12-27T06:45:15.615Z,83.33
2022-12-27T06:48:02.505Z,83.65
2022-12-27T06:51:03.457Z,83.85
2022-12-27T06:56:10.645Z,83.88
2022-12-27T06:58:37.350Z,83.96
2022-12-27T07:01:13.126Z,84.15
2022-12-27T07:03:40.927Z,84.27
2022-12-27T07:06:11.509Z,84.34
2022-12-27T07:08:39.030Z,84.08
2022-12-27T07:11:11.201Z,84.45
2022-12-27T07:13:42.598Z,83.94
2022-12-27T07:16:12.997Z,84.63
2022-12-27T07:18:40.416Z,84.41
2022-12-27T07:21:17.010Z,84.03
2022-12-27T07:23:45.416Z,84.62
2022-12-27T07:26:19.519Z,84.64
2022-12-27T07:28:47.180Z,84.38
2022-12-27T07:31:17.774Z,84.46
2022-12-27T07:33:44.951Z,84.00
2022-12-27T07:36:38.546Z,84.27
2022-12-27T07:39:07.066Z,84.16
2022-12-27T07:41:34.406Z,84.31
2022-12-27T07:44:01.879Z,84.57
2022-12-27T07:46:28.556Z,84.18
2022-12-27T07:48:57.734Z,84.33
2022-12-27T07:51:25.211Z,84.51
2022-12-27T07:53:53.106Z,84.64
2022-12-27T07:56:26.461Z,84.43
2022-12-27T07:58:56.534Z,84.49
2022-12-27T08:01:28.567Z,84.32
2022-12-27T08:03:58.142Z,84.74
2022-12-27T08:06:34.155Z,84.56
2022-12-27T08:09:07.148Z,84.96
2022-12-27T08:11:33.816Z,84.80
2022-12-27T08:14:00.569Z,84.62
2022-12-27T08:16:28.331Z,84.98
2022-12-27T08:18:55.900Z,84.75
2022-12-27T08:21:23.785Z,84.88
2022-12-27T08:23:51.366Z,84.55
2022-12-27T08:26:44.106Z,84.78
2022-12-27T08:29:10.868Z,84.48
2022-12-27T08:31:37.606Z,84.56
2022-12-27T08:34:04.353Z,84.62
2022-12-27T08:36:59.782Z,84.94
2022-12-27T08:39:18.249Z,84.31
2022-12-27T08:41:46.422Z,84.81
2022-12-27T08:44:13.297Z,84.41
2022-12-27T08:47:05.727Z,84.44
2022-12-27T08:49:33.779Z,83.98
2022-12-27T08:52:01.180Z,84.20
2022-12-27T08:54:28.489Z,84.02
2022-12-27T08:56:55.212Z,83.33
2022-12-27T08:59:21.979Z,83.87
2022-12-27T09:01:48.680Z,83.64
2022-12-27T09:04:15.543Z,83.68
2022-12-27T09:06:43.799Z,83.08
2022-12-27T09:09:10.585Z,83.18
2022-12-27T09:11:37.274Z,82.81
2022-12-27T09:14:05.822Z,83.20
2022-12-27T09:16:36.192Z,82.62
2022-12-27T09:19:04.078Z,82.60
2022-12-27T09:21:33.940Z,83.10
2022-12-27T09:24:00.964Z,82.55
2022-12-27T09:26:30.324Z,82.52
2022-12-27T09:28:58.381Z,82.00
2022-12-27T09:31:26.183Z,82.02
2022-12-27T09:33:54.107Z,82.10
2022-12-27T09:36:25.505Z,81.50
2022-12-27T09:38:54.483Z,81.50
2022-12-27T09:42:46.575Z,81.57
2022-12-27T09:45:26.839Z,81.10
2022-12-27T09:47:59.477Z,80.87
2022-12-27T09:50:38.330Z,81.32
2022-12-27T09:53:42.646Z,81.27
2022-12-27T09:56:13.676Z,81.05
2022-12-27T09:58:54.761Z,80.67
2022-12-27T10:01:36.065Z,80.92
2022-12-27T10:04:03.966Z,80.77
2022-12-27T10:06:42.359Z,80.98
2022-12-27T10:09:49.341Z,80.44
2022-12-27T10:13:03.754Z,80.19
2022-12-27T10:15:50.652Z,80.29
2022-12-27T10:18:55.755Z,80.42
2022-12-27T10:21:27.613Z,79.94
2022-12-27T10:24:22.583Z,80.45
2022-12-27T10:26:50.510Z,79.92
2022-12-27T10:29:24.461Z,80.00
2022-12-27T10:31:51.453Z,79.87
2022-12-27T10:34:24.184Z,80.34
2022-12-27T10:36:53.042Z,79.75
2022-12-27T10:39:32.240Z,79.35
2022-12-27T10:42:19.727Z,79.94
2022-12-27T10:44:46.445Z,79.86
2022-12-27T10:47:13.334Z,79.52
2022-12-27T10:49:42.955Z,79.59
2022-12-27T10:52:23.212Z,79.47
2022-12-27T10:54:57.336Z,79.24
2022-12-27T10:57:34.082Z,79.20
2022-12-27T11:00:22.225Z,78.81
2022-12-27T11:02:56.775Z,78.74
2022-12-27T11:05:27.435Z,78.45
2022-12-27T11:07:54.687Z,78.51
2022-12-27T11:10:25.438Z,78.41
2022-12-27T11:13:05.145Z,78.45
2022-12-27T11:15:40.160Z,78.61
2022-12-27T11:18:18.777Z,78.27
2022-12-27T11:20:47.818Z,78.41
2022-12-27T11:23:19.048Z,78.49
2022-12-27T11:26:05.482Z,78.68
2022-12-27T11:28:50.900Z,78.36
2022-12-27T11:31:28.006Z,78.51
2022-12-27T11:34:08.912Z,78.73
2022-12-27T11:36:44.319Z,78.56
2022-12-27T11:39:39.601Z,78.25
2022-12-27T11:42:14.291Z,78.70
2022-12-27T11:44:43.059Z,78.52
2022-12-27T11:47:28.820Z,78.42
2022-12-27T11:50:28.229Z,78.20
2022-12-27T11:53:22.176Z,77.97
2022-12-27T11:56:16.420Z,77.51
2022-12-27T11:59:25.502Z,77.70
2022-12-27T12:02:26.624Z,77.23
2022-12-27T12:05:41.783Z,77.40
2022-12-27T12:08:32.122Z,76.73
2022-12-27T12:11:32.314Z,76.69
2022-12-27T12:14:39.999Z,77.11
2022-12-27T12:17:35.907Z,77.13
2022-12-27T12:20:21.413Z,76.77
2022-12-27T12:23:03.424Z,76.59
2022-12-27T12:26:04.624Z,76.99
2022-12-27T12:28:58.208Z,76.67
2022-12-27T12:32:05.896Z,76.50
2022-12-27T12:34:52.823Z,76.91
2022-12-27T12:37:57.582Z,76.88
2022-12-27T12:40:42.285Z,76.72
2022-12-27T12:43:20.791Z,76.83
2022-12-27T12:46:07.454Z,76.60
2022-12-27T12:48:52.291Z,76.82
2022-12-27T12:51:59.035Z,76.55
2022-12-27T12:54:44.754Z,76.71
2022-12-27T12:57:23.130Z,76.63
2022-12-27T13:00:21.749Z,76.80
2022-12-27T13:03:34.851Z,76.75
2022-12-27T13:06:36.590Z,76.52
2022-12-27T13:09:59.896Z,76.80
2022-12-27T13:13:13.812Z,76.91
2022-12-27T13:16:06.274Z,76.81
2022-12-27T13:18:46.986Z,76.90
2022-12-27T13:21:30.293Z,76.75
2022-12-27T13:24:31.847Z,76.74
2022-12-27T13:27:42.493Z,76.99
2022-12-27T13:30:20.587Z,76.50
2022-12-27T13:32:59.073Z,76.60
2022-12-27T13:35:45.707Z,76.32
2022-12-27T13:38:21.494Z,76.30
2022-12-27T13:41:32.235Z,76.39
2022-12-27T13:44:07.631Z,76.59
2022-12-27T13:46:42.024Z,76.70
2022-12-27T13:49:53.783Z,76.26
2022-12-27T13:52:42.514Z,76.36
2022-12-27T13:55:36.873Z,76.43
2022-12-27T13:58:37.351Z,76.44
2022-12-27T14:01:10.255Z,76.34
2022-12-27T14:03:58.267Z,76.76
2022-12-27T14:07:01.478Z,75.82
2022-12-27T14:09:55.711Z,76.47
2022-12-27T14:12:57.640Z,76.05
2022-12-27T14:15:51.724Z,75.70
2022-12-27T14:18:36.644Z,75.30
2022-12-27T14:21:15.989Z,75.28
2022-12-27T14:24:21.073Z,75.47
2022-12-27T14:27:13.046Z,74.57
2022-12-27T14:30:04.974Z,74.54
2022-12-27T14:32:55.695Z,74.68
2022-12-27T14:36:07.517Z,74.54
2022-12-27T14:39:07.650Z,74.35
2022-12-27T14:42:31.123Z,74.33
2022-12-27T14:45:40.794Z,74.54
2022-12-27T14:48:10.684Z,74.69
2022-12-27T14:51:26.136Z,74.79
2022-12-27T14:54:14.257Z,74.96
2022-12-27T14:57:00.397Z,74.69
2022-12-27T14:59:47.102Z,74.61
2022-12-27T15:02:48.727Z,74.94
2022-12-27T15:05:30.753Z,75.30
2022-12-27T15:08:22.628Z,74.96
2022-12-27T15:11:31.828Z,74.65
2022-12-27T15:14:20.437Z,74.43
2022-12-27T15:17:10.130Z,74.38
2022-12-27T15:20:15.043Z,74.46
2022-12-27T15:23:04.760Z,74.35
2022-12-27T15:26:12.229Z,73.98
2022-12-27T15:29:06.689Z,73.82
2022-12-27T15:31:46.591Z,73.91
2022-12-27T15:34:42.775Z,73.57
2022-12-27T15:37:47.564Z,73.61
2022-12-27T15:40:32.675Z,73.90
2022-12-27T15:43:32.877Z,73.51
2022-12-27T15:46:36.923Z,73.21
2022-12-27T15:49:36.070Z,73.47
2022-12-27T15:52:20.822Z,73.15
2022-12-27T15:55:19.066Z,73.32
2022-12-27T15:58:00.679Z,73.45
2022-12-27T16:00:34.405Z,73.56
2022-12-27T16:03:24.150Z,73.56
2022-12-27T16:05:53.132Z,73.92
2022-12-27T16:08:37.827Z,74.50
2022-12-27T16:11:11.899Z,74.41
2022-12-27T16:13:42.860Z,74.62
2022-12-27T16:16:33.357Z,74.85
2022-12-27T16:19:38.611Z,74.71
2022-12-27T16:22:25.628Z,75.14
2022-12-27T16:24:52.419Z,74.84
2022-12-27T16:27:31.417Z,75.52
2022-12-27T16:29:58.800Z,75.52
2022-12-27T16:32:28.366Z,74.68
2022-12-27T16:35:12.952Z,74.71
2022-12-27T16:37:45.358Z,74.61
2022-12-27T16:41:22.373Z,74.42
2022-12-27T16:44:02.180Z,74.75
2022-12-27T16:46:57.118Z,74.70
2022-12-27T16:49:55.678Z,74.97
2022-12-27T16:52:34.838Z,75.05
2022-12-27T16:55:22.991Z,74.71
2022-12-27T17:02:00.073Z,75.85
2022-12-27T17:04:59.166Z,76.27
2022-12-27T17:07:52.296Z,76.41
2022-12-27T17:10:27.940Z,76.12
2022-12-27T17:13:09.593Z,76.14
2022-12-27T17:15:54.489Z,76.31
2022-12-27T17:18:32.604Z,75.80
2022-12-27T17:21:26.133Z,75.53
2022-12-27T17:24:00.185Z,76.26
2022-12-27T17:27:03.659Z,75.59
2022-12-27T17:30:02.560Z,75.89
2022-12-27T17:33:06.148Z,75.92
2022-12-27T17:36:11.814Z,75.33
2022-12-27T17:39:08.143Z,75.55
2022-12-27T17:42:19.907Z,75.22
2022-12-27T17:45:31.008Z,75.27
2022-12-27T17:48:09.821Z,75.87
2022-12-27T17:50:38.937Z,75.80
2022-12-27T17:53:30.590Z,76.05
2022-12-27T17:56:40.515Z,76.25
2022-12-27T17:59:07.146Z,76.49
2022-12-27T18:01:48.709Z,76.38
2022-12-27T18:04:28.646Z,76.17
2022-12-27T18:07:02.382Z,76.23
2022-12-27T18:09:48.639Z,77.20
2022-12-27T18:12:26.944Z,77.57
2022-12-27T18:15:04.285Z,77.68
2022-12-27T18:17:46.000Z,77.95
2022-12-27T18:20:28.033Z,78.21
2022-12-27T18:23:00.487Z,78.05
2022-12-27T18:25:29.902Z,77.97
2022-12-27T18:28:02.393Z,78.64
2022-12-27T18:30:36.959Z,78.65
2022-12-27T18:33:06.653Z,78.71
2022-12-27T18:35:34.732Z,78.85
2022-12-27T18:38:06.535Z,78.34
2022-12-27T18:40:34.290Z,79.12
2022-12-27T18:43:01.207Z,78.69
2022-12-27T18:45:31.397Z,78.71
2022-12-27T18:48:00.989Z,78.63
2022-12-27T18:50:31.245Z,78.76
2022-12-27T18:53:23.371Z,79.13
2022-12-27T18:56:00.472Z,78.96
2022-12-27T18:58:27.559Z,78.77
2022-12-27T19:01:19.430Z,78.18
2022-12-27T19:04:16.404Z,78.81
2022-12-27T19:07:01.189Z,78.57
2022-12-27T19:09:30.708Z,78.22
2022-12-27T19:12:01.847Z,78.36
2022-12-27T19:14:42.759Z,77.67
2022-12-27T19:17:19.284Z,77.77
2022-12-27T19:19:50.226Z,77.46
2022-12-27T19:22:48.034Z,77.66
2022-12-27T19:25:33.680Z,77.40
2022-12-27T19:28:09.547Z,77.47
2022-12-27T19:30:47.736Z,76.81
2022-12-27T19:33:29.821Z,76.44
2022-12-27T19:35:57.146Z,76.70
2022-12-27T19:38:27.081Z,76.96
2022-12-27T19:41:03.106Z,76.92
2022-12-27T19:43:41.426Z,77.32
2022-12-27T19:46:11.766Z,77.40
2022-12-27T19:48:39.138Z,77.04
2022-12-27T19:51:07.227Z,77.30
2022-12-27T19:53:41.590Z,77.56
2022-12-27T19:56:09.031Z,77.65
2022-12-27T19:58:36.193Z,78.01
2022-12-27T20:01:03.752Z,78.23
2022-12-27T20:03:30.821Z,78.44
2022-12-27T20:06:12.866Z,78.36
2022-12-27T20:08:49.826Z,78.97
2022-12-27T20:11:20.529Z,78.94
2022-12-27T20:13:48.136Z,78.84
2022-12-27T20:16:18.506Z,79.08
2022-12-27T20:18:46.347Z,79.22
2022-12-27T20:21:19.486Z,78.95
2022-12-27T20:23:47.018Z,78.83
2022-12-27T20:26:21.250Z,79.47
2022-12-27T20:28:48.612Z,79.21
2022-12-27T20:31:19.286Z,79.73
2022-12-27T20:33:52.849Z,79.66
2022-12-27T20:36:20.016Z,79.24
2022-12-27T20:38:46.742Z,79.35
2022-12-27T20:41:17.823Z,79.74
2022-12-27T20:43:44.740Z,79.33
2022-12-27T20:46:17.607Z,79.66
2022-12-27T20:48:46.649Z,79.61
2022-12-27T20:51:20.326Z,79.51
2022-12-27T20:53:49.258Z,79.62
2022-12-27T20:56:17.129Z,79.02
2022-12-27T20:58:43.896Z,79.24
2022-12-27T21:01:14.126Z,79.27
2022-12-27T21:03:41.665Z,78.82
2022-12-27T21:06:17.308Z,78.88
2022-12-27T21:08:49.144Z,79.01
2022-12-27T21:11:23.577Z,78.63
2022-12-27T21:13:50.804Z,79.15
2022-12-27T21:16:24.140Z,79.04
2022-12-27T21:18:51.322Z,78.50
2022-12-27T21:21:27.966Z,78.82
2022-12-27T21:23:57.794Z,79.31
2022-12-27T21:26:29.587Z,78.57
2022-12-27T21:28:57.759Z,79.11
2022-12-27T21:31:25.485Z,78.52
2022-12-27T21:33:52.252Z,78.34
2022-12-27T21:36:23.278Z,77.94
2022-12-27T21:38:51.077Z,77.97
2022-12-27T21:41:28.357Z,77.81
2022-12-27T21:43:55.409Z,77.58
2022-12-27T21:46:35.620Z,77.87
2022-12-27T21:49:13.615Z,77.69
2022-12-27T21:51:42.825Z,77.32
2022-12-27T21:54:10.589Z,77.04
2022-12-27T21:56:37.986Z,77.36
2022-12-27T21:59:10.761Z,77.36
2022-12-27T22:01:50.551Z,77.00
2022-12-27T22:04:20.491Z,76.67
2022-12-27T22:06:47.995Z,77.00
2022-12-27T22:09:16.082Z,76.67
2022-12-27T22:11:42.827Z,77.07
2022-12-27T22:14:09.509Z,76.95
2022-12-27T22:16:39.147Z,77.48
2022-12-27T22:19:11.373Z,77.23
2022-12-27T22:21:40.612Z,77.35
2022-12-27T22:24:17.112Z,77.76
2022-12-27T22:26:43.885Z,77.44
2022-12-27T22:29:12.040Z,77.17
2022-12-27T22:31:40.324Z,77.81
2022-12-27T22:34:07.107Z,76.98
2022-12-27T22:36:34.783Z,77.48
2022-12-27T22:39:01.677Z,77.53
2022-12-27T22:41:38.175Z,77.48
2022-12-27T22:44:12.619Z,78.05
2022-12-27T22:49:26.952Z,77.97
2022-12-27T22:51:53.643Z,77.64
2022-12-27T22:54:20.344Z,77.67
2022-12-27T22:57:06.982Z,77.85
2022-12-27T22:59:33.801Z,77.45
2022-12-27T23:02:00.679Z,77.53
2022-12-27T23:04:27.455Z,77.40
2022-12-27T23:06:54.210Z,77.06
2022-12-27T23:09:20.880Z,77.37
2022-12-27T23:11:47.687Z,77.67
2022-12-27T23:14:16.674Z,77.01
2022-12-27T23:16:47.104Z,77.47
2022-12-27T23:19:17.459Z,77.00
2022-12-27T23:21:44.505Z,76.57
2022-12-27T23:24:11.763Z,76.52
2022-12-27T23:26:38.936Z,76.51
2022-12-27T23:29:06.162Z,76.58
2022-12-27T23:31:33.867Z,76.31
2022-12-27T23:34:00.744Z,76.56
2022-12-27T23:36:27.535Z,76.77
2022-12-27T23:38:55.304Z,76.67
2022-12-27T23:41:24.958Z,76.50
2022-12-27T23:43:55.289Z,76.50
2022-12-27T23:46:28.071Z,75.86
2022-12-27T23:48:56.712Z,76.37
2022-12-27T23:51:24.130Z,76.49
2022-12-27T23:53:51.336Z,76.07
2022-12-27T23:56:21.146Z,76.07
2022-12-27T23:58:49.125Z,76.47
